Redwood City, CA (94063)

9:11 PM PDT on October 22, 2014 (GMT -0700)
Centennial | Change Station
CLOSE
Current Station
Personal Weather Station
Location: Redwood City, CA
Elevation: 10 ft
Nearby Weather Stations

Elev 10 ft 37.50 °N, 122.24 °W | Updated 11 minutes ago

Mostly Cloudy
Mostly Cloudy
63.9 °F
Feels Like 63.9 °F
N
0.0
Wind Variable Wind from SE
Gusts 0.0 mph

Today
High -- | Low -- °F
--% Chance of Precip.
Yesterday
High -- | Low -- °F
Precip. -- in
7:23 AM 6:22 PM
Waning Crescent, 1% visible
Pressure 30.05 in
Visibility 10.0 miles
Clouds Mostly Cloudy 20000 ft
Dew Point 55 °F
Humidity 73%
Rainfall 0.00 in
Snow Depth Not available.
UV 0 out of 12
Pollen 2.40 out of 12
Ozone Good
PM2.5 Good
Flu Activity Sporadic
METAR KSQL 230347Z 30006KT 10SM BKN200 18/13 A3005 RMK LAST

More Conditions Fewer Conditions

Pressure 30.05 in
Visibility 10.0 miles
Clouds Mostly Cloudy 20000 ft
Dew Point 55 °F
Humidity 73%
Rainfall 0.00 in
Snow Depth Not available.
UV 0 out of 12
Pollen 2.40 out of 12
Ozone Good
PM2.5 Good
Flu Activity Sporadic
METAR KSQL 230347Z 30006KT 10SM BKN200 18/13 A3005 RMK LAST

More Conditions Fewer Conditions

10-Day Weather Forecast

Almanac

Astronomy

Oct. 22, 2014 Rise Set
Actual Time 7:23 AM PDT 6:22 PM PDT
Civil Twilight 6:57 AM PDT 6:48 PM PDT
Nautical Twilight 6:26 AM PDT 7:19 PM PDT
Astronomical Twilight 5:56 AM PDT 7:49 PM PDT
Moon 6:11 AM PDT (10/22) 5:51 PM PDT (10/22)
Length of Visible Light 11h 51m
Length of Day
10h 58m
Tomorrow will be 2m 14s shorter.
Waning Crescent, 1% of the Moon is Illuminated
Oct 23
Waning Crescent
Oct 23
New
Oct 30
First Quarter
Nov 6
Full
Nov 14
Last Quarter

Today's Extremes

State Highs State Lows

Community

WunderPhotos

Upload Photos

1,764,150 photos uploaded!

Nearby

Air Quality

  Air Quality AQ Index Pollutant
Yesterday Good
OZONE
Yesterday Good
PM2.5
Current Good
OZONE
Current Good
PM2.5
Wednesday Good
OZONE
Thursday Good
OZONE
Friday Good
OZONE
Saturday Good
PM2.5
Sunday Good
PM2.5
Monday Good
PM2.5

Snow Depth

Station Depth Elevation
Echo Peak 1 in 7800 ft
Leavitt Lake 0 in 9400 ft
Rubicon #2 0 in 7500 ft
Hagan's Meadow 0 in 8000 ft
Ward Creek #3 0 in 6750 ft

Earthquake Activity

City Distance Mag. Time & Date
No recent earthquake activity has been reported nearby.
Minimum magnitude displayed is 2.5.

Coastal Water Temperatures

Place Temperature
No Stations Reporting

Nearby Weather Stations